createdAt,value
2022-12-23T00:01:05.670Z,34.00
2022-12-23T00:03:34.609Z,31.48
2022-12-23T00:06:02.256Z,31.00
2022-12-23T00:08:29.930Z,30.35
2022-12-23T00:10:57.718Z,32.40
2022-12-23T00:13:43.502Z,34.97
2022-12-23T00:16:14.497Z,34.80
2022-12-23T00:18:43.050Z,37.47
2022-12-23T00:21:14.463Z,38.47
2022-12-23T00:23:46.297Z,38.03
2022-12-23T00:26:18.263Z,36.92
2022-12-23T00:28:46.381Z,33.67
2022-12-23T00:31:15.023Z,33.67
2022-12-23T00:33:46.745Z,37.80
2022-12-23T00:36:17.797Z,36.03
2022-12-23T00:39:04.850Z,38.17
2022-12-23T00:41:51.524Z,36.40
2022-12-23T00:44:19.387Z,36.13
2022-12-23T00:46:46.811Z,40.90
2022-12-23T00:49:35.802Z,43.80
2022-12-23T00:52:05.266Z,46.10
2022-12-23T00:54:33.017Z,42.42
2022-12-23T00:57:01.415Z,39.38
2022-12-23T00:59:29.091Z,41.42
2022-12-23T01:02:15.267Z,37.08
2022-12-23T01:05:01.579Z,35.60
2022-12-23T01:07:28.853Z,37.33
2022-12-23T01:09:56.361Z,36.38
2022-12-23T01:12:23.745Z,41.30
2022-12-23T01:14:51.249Z,34.58
2022-12-23T01:17:19.245Z,33.70
2022-12-23T01:19:46.798Z,37.55
2022-12-23T01:22:14.009Z,38.42
2022-12-23T01:24:41.564Z,39.88
2022-12-23T01:27:08.951Z,35.30
2022-12-23T01:29:36.517Z,35.75
2022-12-23T01:32:04.082Z,38.58
2022-12-23T01:34:36.669Z,38.30
2022-12-23T01:37:05.812Z,39.05
2022-12-23T01:39:33.633Z,39.95
2022-12-23T01:42:19.736Z,40.20
2022-12-23T01:45:03.098Z,49.78
2022-12-23T01:47:48.478Z,49.05
2022-12-23T01:50:28.228Z,52.45
2022-12-23T01:53:07.984Z,51.28
2022-12-23T01:56:09.143Z,51.28
2022-12-23T01:58:47.998Z,55.20
2022-12-23T02:01:34.123Z,60.13
2022-12-23T02:04:08.170Z,56.90
2022-12-23T02:06:58.642Z,56.05
2022-12-23T02:09:33.244Z,57.25
2022-12-23T02:12:45.815Z,59.38
2022-12-23T02:15:55.384Z,53.78
2022-12-23T02:18:42.224Z,52.78
2022-12-23T02:21:49.631Z,52.63
2022-12-23T02:25:07.470Z,51.17
2022-12-23T02:28:15.776Z,53.63
2022-12-23T02:31:21.715Z,51.35
2022-12-23T02:34:01.415Z,50.08
2022-12-23T02:37:08.936Z,47.72
2022-12-23T02:39:44.715Z,46.00
2022-12-23T02:42:20.841Z,47.05
2022-12-23T02:45:00.563Z,42.08
2022-12-23T02:47:43.601Z,43.60
2022-12-23T02:50:20.200Z,44.63
2022-12-23T02:52:51.041Z,42.25
2022-12-23T02:55:29.182Z,41.90
2022-12-23T02:58:02.028Z,41.53
2022-12-23T03:00:31.002Z,38.25
2022-12-23T03:02:59.944Z,37.42
2022-12-23T03:05:35.180Z,36.17
2022-12-23T03:08:07.958Z,35.95
2022-12-23T03:10:53.561Z,39.40
2022-12-23T03:13:52.938Z,37.63
2022-12-23T03:16:57.914Z,33.90
2022-12-23T03:19:39.778Z,38.25
2022-12-23T03:22:33.136Z,37.33
2022-12-23T03:25:31.985Z,38.50
2022-12-23T03:28:08.559Z,38.08
2022-12-23T03:30:42.403Z,37.72
2022-12-23T03:33:24.703Z,41.50
2022-12-23T03:36:06.547Z,37.13
2022-12-23T03:38:37.875Z,37.05
2022-12-23T03:41:37.123Z,38.20
2022-12-23T03:44:16.285Z,38.88
2022-12-23T03:47:09.791Z,36.47
2022-12-23T03:50:03.210Z,36.33
2022-12-23T03:52:59.891Z,34.00
2022-12-23T03:55:39.077Z,35.22
2022-12-23T03:58:31.184Z,31.85
2022-12-23T04:01:14.380Z,33.40
2022-12-23T04:04:11.706Z,34.65
2022-12-23T04:06:55.113Z,28.48
2022-12-23T04:09:26.919Z,32.05
2022-12-23T04:11:55.642Z,33.65
2022-12-23T04:14:23.666Z,35.00
2022-12-23T04:16:58.417Z,31.13
2022-12-23T04:19:26.172Z,36.50
2022-12-23T04:21:57.669Z,32.78
2022-12-23T04:24:25.202Z,34.17
2022-12-23T04:26:52.417Z,29.45
2022-12-23T04:29:19.971Z,33.60
2022-12-23T04:31:47.268Z,33.25
2022-12-23T04:34:14.978Z,26.27
2022-12-23T04:36:42.207Z,25.27
2022-12-23T04:39:09.997Z,23.58
2022-12-23T04:41:37.216Z,26.25
2022-12-23T04:44:04.950Z,22.90
2022-12-23T04:46:32.293Z,26.35
2022-12-23T04:48:59.829Z,27.00
2022-12-23T04:51:27.151Z,23.52
2022-12-23T04:53:54.675Z,20.95
2022-12-23T04:56:22.026Z,22.42
2022-12-23T04:58:49.610Z,22.65
2022-12-23T05:01:16.885Z,23.20
2022-12-23T05:03:44.476Z,23.92
2022-12-23T05:06:11.757Z,22.60
2022-12-23T05:08:39.274Z,26.00
2022-12-23T05:11:06.557Z,24.90
2022-12-23T05:13:34.054Z,24.42
2022-12-23T05:16:01.331Z,25.85
2022-12-23T05:18:28.893Z,27.15
2022-12-23T05:20:56.155Z,25.42
2022-12-23T05:23:23.718Z,29.15
2022-12-23T05:25:53.720Z,30.88
2022-12-23T05:28:24.590Z,30.70
2022-12-23T05:31:00.141Z,24.65
2022-12-23T05:33:28.981Z,27.70
2022-12-23T05:35:56.964Z,29.83
2022-12-23T05:38:25.095Z,23.67
2022-12-23T05:40:52.545Z,24.80
2022-12-23T05:43:20.476Z,20.50
2022-12-23T05:45:49.062Z,23.48
2022-12-23T05:48:17.232Z,19.55
2022-12-23T05:50:44.423Z,20.98
2022-12-23T05:53:12.040Z,17.48
2022-12-23T05:55:39.308Z,20.45
2022-12-23T05:58:06.895Z,18.98
2022-12-23T06:00:34.607Z,17.55
2022-12-23T06:03:02.314Z,17.08
2022-12-23T06:05:29.771Z,14.75
2022-12-23T06:07:57.292Z,14.77
2022-12-23T06:10:24.574Z,15.48
2022-12-23T06:12:52.072Z,16.27
2022-12-23T06:15:19.345Z,14.48
2022-12-23T06:17:46.920Z,14.40
2022-12-23T06:20:20.464Z,16.63
2022-12-23T06:22:48.718Z,15.70
2022-12-23T06:25:16.224Z,16.67
2022-12-23T06:27:43.943Z,13.13
2022-12-23T06:30:13.131Z,14.38
2022-12-23T06:32:41.190Z,15.93
2022-12-23T06:35:09.718Z,19.25
2022-12-23T06:37:37.295Z,14.55
2022-12-23T06:40:05.376Z,16.50
2022-12-23T06:42:32.958Z,16.20
2022-12-23T06:45:00.204Z,19.30
2022-12-23T06:47:27.737Z,17.67
2022-12-23T06:49:55.077Z,16.20
2022-12-23T06:52:23.185Z,15.05
2022-12-23T06:54:50.576Z,18.15
2022-12-23T06:57:18.124Z,16.02
2022-12-23T06:59:45.345Z,15.95
2022-12-23T07:02:13.057Z,17.25
2022-12-23T07:04:40.368Z,18.70
2022-12-23T07:07:07.925Z,17.27
2022-12-23T07:09:35.183Z,16.85
2022-12-23T07:12:04.002Z,16.85
2022-12-23T07:14:31.363Z,18.08
2022-12-23T07:16:59.061Z,20.17
2022-12-23T07:19:26.309Z,19.13
2022-12-23T07:21:53.810Z,21.70
2022-12-23T07:24:21.087Z,18.45
2022-12-23T07:26:48.574Z,18.63
2022-12-23T07:29:15.833Z,19.80
2022-12-23T07:31:43.383Z,20.15
2022-12-23T07:34:10.720Z,19.35
2022-12-23T07:36:38.310Z,18.25
2022-12-23T07:39:05.926Z,23.27
2022-12-23T07:41:33.506Z,21.75
2022-12-23T07:44:00.678Z,22.83
2022-12-23T07:46:28.387Z,22.60
2022-12-23T07:48:55.685Z,30.70
2022-12-23T07:51:23.257Z,27.67
2022-12-23T07:53:51.506Z,26.70
2022-12-23T07:56:19.687Z,26.10
2022-12-23T07:58:52.353Z,27.42
2022-12-23T08:01:20.922Z,25.02
2022-12-23T08:03:48.622Z,26.88
2022-12-23T08:06:17.276Z,25.13
2022-12-23T08:08:46.413Z,27.92
2022-12-23T08:11:16.542Z,22.50
2022-12-23T08:13:45.923Z,23.83
2022-12-23T08:16:13.468Z,23.10
2022-12-23T08:18:42.181Z,25.60
2022-12-23T08:21:19.571Z,24.00
2022-12-23T08:23:48.369Z,23.88
2022-12-23T08:26:22.445Z,22.00
2022-12-23T08:28:53.612Z,21.73
2022-12-23T08:31:26.628Z,18.27
2022-12-23T08:33:57.458Z,20.10
2022-12-23T08:36:36.176Z,20.23
2022-12-23T08:39:08.845Z,19.08
2022-12-23T08:41:41.888Z,20.60
2022-12-23T08:44:10.767Z,22.58
2022-12-23T08:46:39.291Z,20.02
2022-12-23T08:49:08.109Z,22.20
2022-12-23T08:51:37.003Z,21.30
2022-12-23T08:54:05.468Z,21.73
2022-12-23T08:56:39.170Z,23.05
2022-12-23T08:59:18.014Z,21.35
2022-12-23T09:01:47.597Z,22.55
2022-12-23T09:04:15.668Z,20.38
2022-12-23T09:06:44.320Z,19.77
2022-12-23T09:09:14.478Z,20.90
2022-12-23T09:11:42.851Z,18.77
2022-12-23T09:14:11.707Z,21.63
2022-12-23T09:16:40.047Z,17.95
2022-12-23T09:19:08.038Z,17.83
2022-12-23T09:21:36.041Z,20.13
2022-12-23T09:24:03.494Z,21.08
2022-12-23T09:26:31.890Z,19.30
2022-12-23T09:28:59.871Z,19.90
2022-12-23T09:31:32.633Z,18.00
2022-12-23T09:34:03.445Z,17.75
2022-12-23T09:36:31.143Z,17.40
2022-12-23T09:38:59.643Z,19.50
2022-12-23T09:42:05.545Z,17.77
2022-12-23T09:45:40.095Z,19.55
2022-12-23T09:48:17.603Z,15.90
2022-12-23T09:50:46.728Z,13.15
2022-12-23T09:53:26.908Z,12.73
2022-12-23T09:56:22.764Z,14.18
2022-12-23T09:59:11.078Z,12.77
2022-12-23T10:01:50.895Z,11.98
2022-12-23T10:05:15.289Z,14.27
2022-12-23T10:07:44.936Z,19.95
2022-12-23T10:10:33.006Z,12.05
2022-12-23T10:13:04.707Z,16.00
2022-12-23T10:15:54.604Z,12.18
2022-12-23T10:19:00.091Z,11.65
2022-12-23T10:21:46.730Z,12.23
2022-12-23T10:24:29.464Z,13.85
2022-12-23T10:27:04.312Z,15.80
2022-12-23T10:29:33.820Z,11.70
2022-12-23T10:32:31.609Z,14.43
2022-12-23T10:35:38.719Z,17.88
2022-12-23T10:38:42.694Z,16.60
2022-12-23T10:41:38.367Z,13.88
2022-12-23T10:44:40.091Z,12.80
2022-12-23T10:47:49.823Z,11.02
2022-12-23T10:50:48.537Z,11.93
2022-12-23T10:53:44.367Z,14.07
2022-12-23T10:56:13.724Z,15.57
2022-12-23T10:58:52.905Z,14.38
2022-12-23T11:01:26.462Z,14.90
2022-12-23T11:04:13.874Z,15.05
2022-12-23T11:07:10.795Z,14.57
2022-12-23T11:09:54.905Z,18.55
2022-12-23T11:12:42.627Z,21.40
2022-12-23T11:15:39.590Z,22.35
2022-12-23T11:18:13.213Z,26.30
2022-12-23T11:21:06.284Z,26.27
2022-12-23T11:23:36.630Z,20.13
2022-12-23T11:26:09.903Z,24.17
2022-12-23T11:28:50.819Z,22.38
2022-12-23T11:31:28.639Z,23.13
2022-12-23T11:34:02.041Z,21.48
2022-12-23T11:36:32.326Z,21.67
2022-12-23T11:39:23.790Z,23.85
2022-12-23T11:42:12.019Z,25.60
2022-12-23T11:44:45.741Z,28.15
2022-12-23T11:47:38.941Z,21.50
2022-12-23T11:50:36.850Z,26.27
2022-12-23T11:53:22.242Z,24.45
2022-12-23T11:56:14.912Z,24.02
2022-12-23T11:59:02.980Z,21.52
2022-12-23T12:01:30.800Z,23.67
2022-12-23T12:04:06.332Z,23.00
2022-12-23T12:06:34.986Z,26.58
2022-12-23T12:09:06.795Z,24.95
2022-12-23T12:11:46.712Z,27.50
2022-12-23T12:14:32.726Z,26.58
2022-12-23T12:17:17.842Z,26.63
2022-12-23T12:20:10.725Z,25.42
2022-12-23T12:22:49.561Z,22.70
2022-12-23T12:26:09.622Z,23.75
2022-12-23T12:28:47.933Z,26.15
2022-12-23T12:31:20.660Z,25.75
2022-12-23T12:33:56.979Z,32.50
2022-12-23T12:36:50.911Z,28.00
2022-12-23T12:39:55.025Z,24.73
2022-12-23T12:42:36.845Z,19.38
2022-12-23T12:45:39.945Z,20.85
2022-12-23T12:48:43.703Z,19.83
2022-12-23T12:51:43.408Z,20.55
2022-12-23T12:54:32.283Z,19.25
2022-12-23T12:57:02.341Z,23.83
2022-12-23T12:59:39.037Z,23.13
2022-12-23T13:02:27.736Z,20.65
2022-12-23T13:05:26.373Z,15.90
2022-12-23T13:08:14.337Z,16.05
2022-12-23T13:11:12.984Z,15.98
2022-12-23T13:13:59.262Z,17.58
2022-12-23T13:17:04.879Z,15.10
2022-12-23T13:19:48.580Z,14.70
2022-12-23T13:22:34.271Z,15.55
2022-12-23T13:25:16.641Z,17.48
2022-12-23T13:28:32.606Z,14.52
2022-12-23T13:31:47.928Z,14.70
2022-12-23T13:35:19.736Z,15.60
2022-12-23T13:38:37.691Z,18.33
2022-12-23T13:41:31.551Z,19.75
2022-12-23T13:44:05.580Z,15.70
2022-12-23T13:47:06.224Z,17.23
2022-12-23T13:49:36.555Z,18.33
2022-12-23T13:52:43.898Z,21.67
2022-12-23T13:55:32.957Z,20.42
2022-12-23T13:58:02.949Z,23.40
2022-12-23T14:00:34.024Z,25.77
2022-12-23T14:03:01.266Z,20.98
2022-12-23T14:05:36.474Z,25.33
2022-12-23T14:08:19.573Z,25.33
2022-12-23T14:11:11.924Z,21.65
2022-12-23T14:13:51.100Z,20.25
2022-12-23T14:16:46.036Z,22.58
2022-12-23T14:19:19.043Z,20.05
2022-12-23T14:22:13.117Z,19.42
2022-12-23T14:24:59.142Z,23.27
2022-12-23T14:27:59.908Z,22.92
2022-12-23T14:30:46.834Z,24.40
2022-12-23T14:33:37.491Z,23.77
2022-12-23T14:36:26.895Z,27.80
2022-12-23T14:39:12.869Z,23.90
2022-12-23T14:41:50.580Z,20.67
2022-12-23T14:44:21.122Z,22.55
2022-12-23T14:46:48.408Z,23.95
2022-12-23T14:49:40.877Z,25.30
2022-12-23T14:52:44.721Z,23.13
2022-12-23T14:55:41.945Z,26.88
2022-12-23T14:58:18.110Z,25.98
2022-12-23T15:00:55.788Z,28.23
2022-12-23T15:03:23.322Z,30.40
2022-12-23T15:05:51.390Z,32.92
2022-12-23T15:08:37.840Z,33.78
2022-12-23T15:11:09.557Z,37.65
2022-12-23T15:13:38.087Z,33.83
2022-12-23T15:16:06.166Z,37.55
2022-12-23T15:18:33.560Z,41.42
2022-12-23T15:21:09.917Z,36.90
2022-12-23T15:23:37.198Z,37.05
2022-12-23T15:26:05.008Z,37.45
2022-12-23T15:28:38.740Z,33.67
2022-12-23T15:31:23.589Z,41.30
2022-12-23T15:34:02.763Z,38.85
2022-12-23T15:36:36.920Z,39.53
2022-12-23T15:39:17.221Z,38.42
2022-12-23T15:41:47.514Z,36.33
2022-12-23T15:44:41.402Z,34.03
2022-12-23T15:47:43.150Z,34.25
2022-12-23T15:50:15.568Z,36.13
2022-12-23T15:52:47.659Z,36.95
2022-12-23T15:55:31.335Z,36.35
2022-12-23T15:58:03.691Z,37.30
2022-12-23T16:00:55.502Z,35.40
2022-12-23T16:03:37.720Z,34.25
2022-12-23T16:06:34.500Z,30.17
2022-12-23T16:09:36.123Z,30.48
2022-12-23T16:12:26.618Z,32.00
2022-12-23T16:14:58.077Z,32.67
2022-12-23T16:17:36.222Z,31.27
2022-12-23T16:20:26.854Z,29.40
2022-12-23T16:23:00.984Z,28.27
2022-12-23T16:25:33.507Z,28.40
2022-12-23T16:28:03.986Z,29.90
2022-12-23T16:30:36.202Z,26.65
2022-12-23T16:33:24.494Z,25.10
2022-12-23T16:35:56.036Z,27.27
2022-12-23T16:38:26.569Z,29.73
2022-12-23T16:40:57.120Z,29.90
2022-12-23T16:43:25.550Z,26.85
2022-12-23T16:45:56.934Z,24.05
2022-12-23T16:48:40.632Z,30.05
2022-12-23T16:51:14.016Z,25.52
2022-12-23T16:53:41.333Z,24.92
2022-12-23T16:56:20.964Z,26.73
2022-12-23T16:58:48.428Z,28.25
2022-12-23T17:01:24.976Z,28.52
2022-12-23T17:03:53.175Z,29.70
2022-12-23T17:06:22.204Z,28.08
2022-12-23T17:08:50.187Z,29.30
2022-12-23T17:11:40.109Z,29.30
2022-12-23T17:14:15.826Z,31.52
2022-12-23T17:16:45.407Z,37.58
2022-12-23T17:19:12.918Z,33.53
2022-12-23T17:21:48.701Z,35.38
2022-12-23T17:24:27.646Z,38.50
2022-12-23T17:26:59.115Z,41.38
2022-12-23T17:29:26.555Z,42.10
2022-12-23T17:31:54.413Z,39.20
2022-12-23T17:34:24.921Z,37.80
2022-12-23T17:36:53.259Z,37.72
2022-12-23T17:39:22.260Z,42.85
2022-12-23T17:41:50.220Z,39.40
2022-12-23T17:44:18.465Z,39.80
2022-12-23T17:46:47.267Z,42.03
2022-12-23T17:49:14.890Z,41.70
2022-12-23T17:51:43.423Z,45.15
2022-12-23T17:54:24.013Z,42.88
2022-12-23T17:56:51.947Z,40.75
2022-12-23T17:59:20.788Z,41.13
2022-12-23T18:01:48.758Z,41.95
2022-12-23T18:04:16.290Z,43.28
2022-12-23T18:06:43.824Z,39.13
2022-12-23T18:09:11.080Z,37.65
2022-12-23T18:11:45.649Z,39.15
2022-12-23T18:14:29.269Z,41.90
2022-12-23T18:16:56.820Z,35.85
2022-12-23T18:19:24.694Z,38.33
2022-12-23T18:21:52.960Z,36.70
2022-12-23T18:24:20.295Z,40.70
2022-12-23T18:26:47.906Z,34.67
2022-12-23T18:29:15.146Z,34.80
2022-12-23T18:31:51.354Z,35.45
2022-12-23T18:34:20.321Z,33.95
2022-12-23T18:36:48.531Z,34.42
2022-12-23T18:39:16.085Z,35.13
2022-12-23T18:41:45.473Z,31.08
2022-12-23T18:44:21.270Z,29.77
2022-12-23T18:46:50.175Z,28.38
2022-12-23T18:49:17.689Z,27.45
2022-12-23T18:51:45.812Z,27.70
2022-12-23T18:54:16.267Z,28.02
2022-12-23T18:56:44.887Z,25.75
2022-12-23T18:59:29.355Z,27.27
2022-12-23T19:01:58.333Z,27.17
2022-12-23T19:04:27.121Z,24.52
2022-12-23T19:06:56.749Z,27.50
2022-12-23T19:09:24.863Z,24.48
2022-12-23T19:11:54.384Z,27.67
2022-12-23T19:14:21.993Z,24.65
2022-12-23T19:16:52.369Z,30.65
2022-12-23T19:19:21.609Z,28.55
2022-12-23T19:21:49.474Z,27.80
2022-12-23T19:24:16.816Z,29.50
2022-12-23T19:26:44.504Z,24.60
2022-12-23T19:29:11.941Z,26.38
2022-12-23T19:31:40.373Z,29.33
2022-12-23T19:34:12.866Z,27.90
2022-12-23T19:36:43.362Z,27.63
2022-12-23T19:39:16.612Z,23.50
2022-12-23T19:41:45.373Z,27.92
2022-12-23T19:44:12.738Z,26.70
2022-12-23T19:46:40.465Z,24.98
2022-12-23T19:49:07.832Z,23.85
2022-12-23T19:51:35.579Z,24.58
2022-12-23T19:54:03.268Z,25.00
2022-12-23T19:56:32.534Z,25.65
2022-12-23T19:58:59.799Z,26.35
2022-12-23T20:01:27.910Z,28.88
2022-12-23T20:03:56.868Z,29.00
2022-12-23T20:06:34.009Z,28.23
2022-12-23T20:09:04.439Z,26.40
2022-12-23T20:11:41.979Z,26.50
2022-12-23T20:14:10.189Z,29.20
2022-12-23T20:16:39.626Z,29.65
2022-12-23T20:19:08.095Z,34.53
2022-12-23T20:21:40.287Z,35.40
2022-12-23T20:24:08.160Z,29.27
2022-12-23T20:26:35.792Z,27.27
2022-12-23T20:29:04.041Z,28.13
2022-12-23T20:31:35.597Z,29.23
2022-12-23T20:34:05.248Z,32.97
2022-12-23T20:36:36.181Z,31.27
2022-12-23T20:39:04.278Z,30.50
2022-12-23T20:41:32.611Z,27.08
2022-12-23T20:44:33.040Z,27.60
2022-12-23T20:46:48.235Z,25.98
2022-12-23T20:49:15.653Z,27.33
2022-12-23T20:51:43.210Z,23.83
2022-12-23T20:54:10.481Z,27.20
2022-12-23T20:56:38.095Z,27.15
2022-12-23T20:59:05.423Z,25.98
2022-12-23T21:01:38.097Z,22.70
2022-12-23T21:04:13.047Z,26.73
2022-12-23T21:06:40.892Z,24.73
2022-12-23T21:09:12.302Z,24.13
2022-12-23T21:11:43.735Z,23.10
2022-12-23T21:14:12.319Z,23.13
2022-12-23T21:16:40.674Z,21.75
2022-12-23T21:19:15.519Z,20.10
2022-12-23T21:21:43.223Z,20.58
2022-12-23T21:24:11.452Z,18.67
2022-12-23T21:26:39.839Z,17.85
2022-12-23T21:29:10.387Z,22.30
2022-12-23T21:31:41.221Z,21.75
2022-12-23T21:34:09.281Z,17.60
2022-12-23T21:36:38.971Z,19.63
2022-12-23T21:39:08.426Z,18.95
2022-12-23T21:41:38.832Z,17.15
2022-12-23T21:44:06.840Z,17.42
2022-12-23T21:46:43.598Z,20.42
2022-12-23T21:49:11.535Z,19.67
2022-12-23T21:51:41.030Z,21.10
2022-12-23T21:54:10.916Z,19.58
2022-12-23T21:56:41.075Z,18.38
2022-12-23T21:59:15.285Z,19.48
2022-12-23T22:01:43.776Z,17.95
2022-12-23T22:04:12.049Z,18.42
2022-12-23T22:06:45.958Z,15.73
2022-12-23T22:09:18.287Z,20.58
2022-12-23T22:11:47.155Z,21.90
2022-12-23T22:14:18.207Z,20.20
2022-12-23T22:16:46.048Z,19.95
2022-12-23T22:19:13.672Z,19.65
2022-12-23T22:21:42.729Z,17.63
2022-12-23T22:24:10.378Z,19.65
2022-12-23T22:26:39.648Z,20.90
2022-12-23T22:29:07.299Z,20.73
2022-12-23T22:31:46.219Z,20.75
2022-12-23T22:34:17.587Z,21.23
2022-12-23T22:36:45.522Z,20.35
2022-12-23T22:39:20.092Z,21.98
2022-12-23T22:41:50.228Z,20.35
2022-12-23T22:44:18.848Z,21.85
2022-12-23T22:46:46.789Z,22.42
2022-12-23T22:49:15.849Z,23.45
2022-12-23T22:51:44.248Z,22.10
2022-12-23T22:54:11.900Z,18.73
2022-12-23T22:56:39.713Z,16.17
2022-12-23T22:59:07.053Z,18.27
2022-12-23T23:01:36.476Z,17.80
2022-12-23T23:04:04.752Z,18.85
2022-12-23T23:06:38.017Z,20.38
2022-12-23T23:09:10.394Z,21.02
2022-12-23T23:11:38.386Z,17.80
2022-12-23T23:14:06.493Z,19.25
2022-12-23T23:16:34.247Z,18.80
2022-12-23T23:19:02.727Z,17.52
2022-12-23T23:21:30.383Z,19.20
2022-12-23T23:23:57.713Z,19.13
2022-12-23T23:26:27.467Z,18.10
2022-12-23T23:28:56.409Z,20.10
2022-12-23T23:31:42.071Z,19.30
2022-12-23T23:34:10.210Z,18.70
2022-12-23T23:36:37.872Z,21.67
2022-12-23T23:39:05.209Z,20.75
2022-12-23T23:41:32.850Z,20.63
2022-12-23T23:44:00.601Z,21.02
2022-12-23T23:46:28.149Z,19.40
2022-12-23T23:48:55.445Z,23.75
2022-12-23T23:51:23.897Z,24.02
2022-12-23T23:53:51.202Z,23.15
2022-12-23T23:56:24.769Z,23.02
2022-12-23T23:58:52.956Z,23.60
